sensor_id;sensor_type;location;lat;lon;timestamp;P1;durP1;ratioP1;P2;durP2;ratioP2
15677;SDS011;7939;50.814;6.368;2023-06-19T00:02:27;5.88;;;5.28;;
15677;SDS011;7939;50.814;6.368;2023-06-19T00:04:53;6.60;;;5.32;;
15677;SDS011;7939;50.814;6.368;2023-06-19T00:07:20;5.90;;;4.78;;
15677;SDS011;7939;50.814;6.368;2023-06-19T00:09:47;6.60;;;5.18;;
15677;SDS011;7939;50.814;6.368;2023-06-19T00:12:13;5.75;;;4.75;;
15677;SDS011;7939;50.814;6.368;2023-06-19T00:14:40;6.63;;;5.35;;
15677;SDS011;7939;50.814;6.368;2023-06-19T00:17:07;7.70;;;6.00;;
15677;SDS011;7939;50.814;6.368;2023-06-19T00:19:35;5.70;;;5.15;;
15677;SDS011;7939;50.814;6.368;2023-06-19T00:22:02;5.72;;;5.15;;
15677;SDS011;7939;50.814;6.368;2023-06-19T00:24:29;7.57;;;6.15;;
15677;SDS011;7939;50.814;6.368;2023-06-19T00:26:55;6.35;;;5.63;;
15677;SDS011;7939;50.814;6.368;2023-06-19T00:29:28;6.05;;;5.45;;
15677;SDS011;7939;50.814;6.368;2023-06-19T00:31:54;7.68;;;5.68;;
15677;SDS011;7939;50.814;6.368;2023-06-19T00:34:21;5.65;;;5.03;;
15677;SDS011;7939;50.814;6.368;2023-06-19T00:36:50;5.43;;;4.93;;
15677;SDS011;7939;50.814;6.368;2023-06-19T00:39:19;6.47;;;5.88;;
15677;SDS011;7939;50.814;6.368;2023-06-19T00:41:46;6.53;;;5.90;;
15677;SDS011;7939;50.814;6.368;2023-06-19T00:44:13;6.05;;;4.97;;
15677;SDS011;7939;50.814;6.368;2023-06-19T00:46:40;5.47;;;4.97;;
15677;SDS011;7939;50.814;6.368;2023-06-19T00:49:07;4.63;;;4.20;;
15677;SDS011;7939;50.814;6.368;2023-06-19T00:51:33;5.63;;;5.13;;
15677;SDS011;7939;50.814;6.368;2023-06-19T00:54:02;6.90;;;5.03;;
15677;SDS011;7939;50.814;6.368;2023-06-19T00:56:29;5.28;;;4.78;;
15677;SDS011;7939;50.814;6.368;2023-06-19T00:58:56;4.90;;;4.40;;
15677;SDS011;7939;50.814;6.368;2023-06-19T01:01:23;4.63;;;4.22;;
15677;SDS011;7939;50.814;6.368;2023-06-19T01:03:51;5.60;;;4.68;;
15677;SDS011;7939;50.814;6.368;2023-06-19T01:06:19;5.43;;;4.55;;
15677;SDS011;7939;50.814;6.368;2023-06-19T01:08:49;7.88;;;5.68;;
15677;SDS011;7939;50.814;6.368;2023-06-19T01:11:24;5.72;;;5.22;;
15677;SDS011;7939;50.814;6.368;2023-06-19T01:13:55;6.05;;;5.55;;
15677;SDS011;7939;50.814;6.368;2023-06-19T01:16:25;6.38;;;4.82;;
15677;SDS011;7939;50.814;6.368;2023-06-19T01:18:52;5.53;;;4.78;;
15677;SDS011;7939;50.814;6.368;2023-06-19T01:21:20;5.53;;;4.55;;
15677;SDS011;7939;50.814;6.368;2023-06-19T01:23:48;6.13;;;5.03;;
15677;SDS011;7939;50.814;6.368;2023-06-19T01:26:17;6.40;;;5.32;;
15677;SDS011;7939;50.814;6.368;2023-06-19T01:28:44;5.82;;;5.25;;
15677;SDS011;7939;50.814;6.368;2023-06-19T01:31:13;7.68;;;5.20;;
15677;SDS011;7939;50.814;6.368;2023-06-19T01:33:43;6.82;;;5.63;;
15677;SDS011;7939;50.814;6.368;2023-06-19T01:36:12;7.20;;;6.25;;
15677;SDS011;7939;50.814;6.368;2023-06-19T01:38:40;7.55;;;6.10;;
15677;SDS011;7939;50.814;6.368;2023-06-19T01:41:11;6.28;;;5.53;;
15677;SDS011;7939;50.814;6.368;2023-06-19T01:43:40;7.05;;;6.35;;
15677;SDS011;7939;50.814;6.368;2023-06-19T01:46:07;6.57;;;5.88;;
15677;SDS011;7939;50.814;6.368;2023-06-19T01:48:34;6.35;;;5.75;;
15677;SDS011;7939;50.814;6.368;2023-06-19T01:51:01;6.97;;;5.95;;
15677;SDS011;7939;50.814;6.368;2023-06-19T01:53:29;7.20;;;6.50;;
15677;SDS011;7939;50.814;6.368;2023-06-19T01:55:56;7.43;;;5.68;;
15677;SDS011;7939;50.814;6.368;2023-06-19T01:58:24;6.93;;;6.03;;
15677;SDS011;7939;50.814;6.368;2023-06-19T02:00:51;8.50;;;5.40;;
15677;SDS011;7939;50.814;6.368;2023-06-19T02:03:17;5.90;;;5.30;;
15677;SDS011;7939;50.814;6.368;2023-06-19T02:05:44;6.70;;;5.78;;
15677;SDS011;7939;50.814;6.368;2023-06-19T02:08:11;7.65;;;5.45;;
15677;SDS011;7939;50.814;6.368;2023-06-19T02:10:37;6.03;;;5.32;;
15677;SDS011;7939;50.814;6.368;2023-06-19T02:13:04;5.47;;;4.80;;
15677;SDS011;7939;50.814;6.368;2023-06-19T02:15:32;5.22;;;4.43;;
15677;SDS011;7939;50.814;6.368;2023-06-19T02:17:59;5.55;;;4.95;;
15677;SDS011;7939;50.814;6.368;2023-06-19T02:20:26;5.38;;;4.88;;
15677;SDS011;7939;50.814;6.368;2023-06-19T02:22:52;5.72;;;5.00;;
15677;SDS011;7939;50.814;6.368;2023-06-19T02:25:19;6.35;;;4.80;;
15677;SDS011;7939;50.814;6.368;2023-06-19T02:27:45;5.95;;;4.88;;
15677;SDS011;7939;50.814;6.368;2023-06-19T02:30:12;6.22;;;4.57;;
15677;SDS011;7939;50.814;6.368;2023-06-19T02:32:41;5.18;;;4.68;;
15677;SDS011;7939;50.814;6.368;2023-06-19T02:35:09;4.72;;;4.28;;
15677;SDS011;7939;50.814;6.368;2023-06-19T02:37:36;6.07;;;5.03;;
15677;SDS011;7939;50.814;6.368;2023-06-19T02:40:03;6.10;;;5.07;;
15677;SDS011;7939;50.814;6.368;2023-06-19T02:42:31;5.43;;;4.80;;
15677;SDS011;7939;50.814;6.368;2023-06-19T02:44:58;6.10;;;4.55;;
15677;SDS011;7939;50.814;6.368;2023-06-19T02:47:28;4.85;;;4.07;;
15677;SDS011;7939;50.814;6.368;2023-06-19T02:49:57;7.25;;;5.28;;
15677;SDS011;7939;50.814;6.368;2023-06-19T02:52:24;4.93;;;4.43;;
15677;SDS011;7939;50.814;6.368;2023-06-19T02:54:51;5.20;;;4.70;;
15677;SDS011;7939;50.814;6.368;2023-06-19T02:57:17;4.90;;;4.20;;
15677;SDS011;7939;50.814;6.368;2023-06-19T02:59:44;5.70;;;4.30;;
15677;SDS011;7939;50.814;6.368;2023-06-19T03:02:11;3.63;;;3.22;;
15677;SDS011;7939;50.814;6.368;2023-06-19T03:04:37;3.42;;;3.13;;
15677;SDS011;7939;50.814;6.368;2023-06-19T03:07:05;3.47;;;3.17;;
15677;SDS011;7939;50.814;6.368;2023-06-19T03:09:32;5.72;;;3.65;;
15677;SDS011;7939;50.814;6.368;2023-06-19T03:11:58;5.05;;;3.80;;
15677;SDS011;7939;50.814;6.368;2023-06-19T03:14:25;6.32;;;4.00;;
15677;SDS011;7939;50.814;6.368;2023-06-19T03:16:52;4.03;;;3.47;;
15677;SDS011;7939;50.814;6.368;2023-06-19T03:19:18;4.22;;;3.47;;
15677;SDS011;7939;50.814;6.368;2023-06-19T03:21:45;5.32;;;3.67;;
15677;SDS011;7939;50.814;6.368;2023-06-19T03:24:13;3.88;;;3.35;;
15677;SDS011;7939;50.814;6.368;2023-06-19T03:26:40;5.22;;;3.58;;
15677;SDS011;7939;50.814;6.368;2023-06-19T03:29:07;3.95;;;3.40;;
15677;SDS011;7939;50.814;6.368;2023-06-19T03:31:34;3.55;;;3.25;;
15677;SDS011;7939;50.814;6.368;2023-06-19T03:34:00;3.80;;;3.17;;
15677;SDS011;7939;50.814;6.368;2023-06-19T03:36:27;6.00;;;3.35;;
15677;SDS011;7939;50.814;6.368;2023-06-19T03:38:53;4.55;;;3.75;;
15677;SDS011;7939;50.814;6.368;2023-06-19T03:41:22;4.70;;;3.60;;
15677;SDS011;7939;50.814;6.368;2023-06-19T03:43:48;4.53;;;3.50;;
15677;SDS011;7939;50.814;6.368;2023-06-19T03:46:15;4.68;;;3.17;;
15677;SDS011;7939;50.814;6.368;2023-06-19T03:48:41;3.85;;;3.42;;
15677;SDS011;7939;50.814;6.368;2023-06-19T03:51:08;5.53;;;3.22;;
15677;SDS011;7939;50.814;6.368;2023-06-19T03:53:34;3.55;;;3.25;;
15677;SDS011;7939;50.814;6.368;2023-06-19T03:56:01;4.72;;;3.58;;
15677;SDS011;7939;50.814;6.368;2023-06-19T03:58:29;4.90;;;3.70;;
15677;SDS011;7939;50.814;6.368;2023-06-19T04:00:55;4.28;;;2.92;;
15677;SDS011;7939;50.814;6.368;2023-06-19T04:03:22;5.15;;;3.15;;
15677;SDS011;7939;50.814;6.368;2023-06-19T04:05:49;4.63;;;3.30;;
15677;SDS011;7939;50.814;6.368;2023-06-19T04:08:15;5.03;;;3.63;;
15677;SDS011;7939;50.814;6.368;2023-06-19T04:10:42;5.72;;;3.97;;
15677;SDS011;7939;50.814;6.368;2023-06-19T04:13:08;3.38;;;2.85;;
15677;SDS011;7939;50.814;6.368;2023-06-19T04:15:37;3.90;;;2.88;;
15677;SDS011;7939;50.814;6.368;2023-06-19T04:18:03;4.20;;;3.20;;
15677;SDS011;7939;50.814;6.368;2023-06-19T04:20:30;3.38;;;3.00;;
15677;SDS011;7939;50.814;6.368;2023-06-19T04:22:57;3.30;;;2.67;;
15677;SDS011;7939;50.814;6.368;2023-06-19T04:25:23;5.97;;;3.38;;
15677;SDS011;7939;50.814;6.368;2023-06-19T04:27:50;3.15;;;2.80;;
15677;SDS011;7939;50.814;6.368;2023-06-19T04:30:16;2.65;;;2.45;;
15677;SDS011;7939;50.814;6.368;2023-06-19T04:32:46;4.65;;;3.33;;
15677;SDS011;7939;50.814;6.368;2023-06-19T04:35:12;3.53;;;2.92;;
15677;SDS011;7939;50.814;6.368;2023-06-19T04:37:39;3.75;;;2.97;;
15677;SDS011;7939;50.814;6.368;2023-06-19T04:40:06;3.47;;;2.50;;
15677;SDS011;7939;50.814;6.368;2023-06-19T04:42:34;3.08;;;2.65;;
15677;SDS011;7939;50.814;6.368;2023-06-19T04:45:00;4.93;;;2.78;;
15677;SDS011;7939;50.814;6.368;2023-06-19T04:47:27;3.10;;;2.80;;
15677;SDS011;7939;50.814;6.368;2023-06-19T04:49:55;2.90;;;2.50;;
15677;SDS011;7939;50.814;6.368;2023-06-19T04:52:21;2.90;;;2.60;;
15677;SDS011;7939;50.814;6.368;2023-06-19T04:54:48;3.65;;;3.35;;
15677;SDS011;7939;50.814;6.368;2023-06-19T04:57:15;3.13;;;2.63;;
15677;SDS011;7939;50.814;6.368;2023-06-19T04:59:42;3.83;;;2.45;;
15677;SDS011;7939;50.814;6.368;2023-06-19T05:02:09;2.85;;;2.53;;
15677;SDS011;7939;50.814;6.368;2023-06-19T05:04:36;3.63;;;2.60;;
15677;SDS011;7939;50.814;6.368;2023-06-19T05:07:04;5.35;;;2.58;;
15677;SDS011;7939;50.814;6.368;2023-06-19T05:09:31;2.63;;;2.20;;
15677;SDS011;7939;50.814;6.368;2023-06-19T05:11:58;2.47;;;2.28;;
15677;SDS011;7939;50.814;6.368;2023-06-19T05:14:25;3.60;;;2.47;;
15677;SDS011;7939;50.814;6.368;2023-06-19T05:16:51;2.22;;;2.00;;
15677;SDS011;7939;50.814;6.368;2023-06-19T05:19:18;2.95;;;2.13;;
15677;SDS011;7939;50.814;6.368;2023-06-19T05:21:44;5.55;;;2.08;;
15677;SDS011;7939;50.814;6.368;2023-06-19T05:24:12;2.97;;;2.05;;
15677;SDS011;7939;50.814;6.368;2023-06-19T05:26:39;3.17;;;2.22;;
15677;SDS011;7939;50.814;6.368;2023-06-19T05:29:05;6.18;;;3.00;;
15677;SDS011;7939;50.814;6.368;2023-06-19T05:31:33;3.92;;;1.85;;
15677;SDS011;7939;50.814;6.368;2023-06-19T05:34:00;2.67;;;2.00;;
15677;SDS011;7939;50.814;6.368;2023-06-19T05:36:27;3.72;;;1.98;;
15677;SDS011;7939;50.814;6.368;2023-06-19T05:38:53;3.05;;;2.15;;
15677;SDS011;7939;50.814;6.368;2023-06-19T05:41:21;1.70;;;1.60;;
15677;SDS011;7939;50.814;6.368;2023-06-19T05:43:48;2.30;;;1.42;;
15677;SDS011;7939;50.814;6.368;2023-06-19T05:46:15;1.83;;;1.65;;
15677;SDS011;7939;50.814;6.368;2023-06-19T05:48:42;4.10;;;1.52;;
15677;SDS011;7939;50.814;6.368;2023-06-19T05:51:08;1.55;;;1.30;;
15677;SDS011;7939;50.814;6.368;2023-06-19T05:53:35;2.45;;;1.63;;
15677;SDS011;7939;50.814;6.368;2023-06-19T05:56:04;1.75;;;1.50;;
15677;SDS011;7939;50.814;6.368;2023-06-19T05:58:32;2.15;;;1.50;;
15677;SDS011;7939;50.814;6.368;2023-06-19T06:00:59;2.35;;;1.30;;
15677;SDS011;7939;50.814;6.368;2023-06-19T06:03:25;1.85;;;1.55;;
15677;SDS011;7939;50.814;6.368;2023-06-19T06:05:53;2.20;;;1.50;;
15677;SDS011;7939;50.814;6.368;2023-06-19T06:08:19;1.35;;;1.23;;
15677;SDS011;7939;50.814;6.368;2023-06-19T06:10:46;5.20;;;1.50;;
15677;SDS011;7939;50.814;6.368;2023-06-19T06:13:13;1.85;;;1.70;;
15677;SDS011;7939;50.814;6.368;2023-06-19T06:15:41;2.42;;;1.42;;
15677;SDS011;7939;50.814;6.368;2023-06-19T06:18:08;2.78;;;1.60;;
15677;SDS011;7939;50.814;6.368;2023-06-19T06:20:34;3.15;;;1.60;;
15677;SDS011;7939;50.814;6.368;2023-06-19T06:23:01;1.40;;;1.30;;
15677;SDS011;7939;50.814;6.368;2023-06-19T06:25:28;1.88;;;1.30;;
15677;SDS011;7939;50.814;6.368;2023-06-19T06:27:55;2.75;;;1.52;;
15677;SDS011;7939;50.814;6.368;2023-06-19T06:30:22;4.20;;;1.70;;
15677;SDS011;7939;50.814;6.368;2023-06-19T06:32:50;1.98;;;1.60;;
15677;SDS011;7939;50.814;6.368;2023-06-19T06:35:17;2.70;;;1.70;;
15677;SDS011;7939;50.814;6.368;2023-06-19T06:37:43;2.22;;;1.63;;
15677;SDS011;7939;50.814;6.368;2023-06-19T06:40:11;3.45;;;1.83;;
15677;SDS011;7939;50.814;6.368;2023-06-19T06:42:38;1.67;;;1.58;;
15677;SDS011;7939;50.814;6.368;2023-06-19T06:45:05;3.45;;;1.80;;
15677;SDS011;7939;50.814;6.368;2023-06-19T06:47:33;3.92;;;1.52;;
15677;SDS011;7939;50.814;6.368;2023-06-19T06:50:01;1.92;;;1.63;;
15677;SDS011;7939;50.814;6.368;2023-06-19T06:52:29;1.92;;;1.77;;
15677;SDS011;7939;50.814;6.368;2023-06-19T06:54:57;2.83;;;1.50;;
15677;SDS011;7939;50.814;6.368;2023-06-19T06:57:24;1.60;;;1.50;;
15677;SDS011;7939;50.814;6.368;2023-06-19T06:59:50;3.72;;;1.75;;
15677;SDS011;7939;50.814;6.368;2023-06-19T07:02:17;2.08;;;1.67;;
15677;SDS011;7939;50.814;6.368;2023-06-19T07:04:44;2.03;;;1.83;;
15677;SDS011;7939;50.814;6.368;2023-06-19T07:07:12;2.85;;;1.70;;
15677;SDS011;7939;50.814;6.368;2023-06-19T07:09:38;2.45;;;1.80;;
15677;SDS011;7939;50.814;6.368;2023-06-19T07:12:05;3.30;;;1.67;;
15677;SDS011;7939;50.814;6.368;2023-06-19T07:14:33;2.60;;;2.20;;
15677;SDS011;7939;50.814;6.368;2023-06-19T07:16:59;2.22;;;1.92;;
15677;SDS011;7939;50.814;6.368;2023-06-19T07:19:26;2.88;;;1.95;;
15677;SDS011;7939;50.814;6.368;2023-06-19T07:21:52;2.70;;;1.73;;
15677;SDS011;7939;50.814;6.368;2023-06-19T07:24:20;2.95;;;1.98;;
15677;SDS011;7939;50.814;6.368;2023-06-19T07:26:49;2.55;;;1.83;;
15677;SDS011;7939;50.814;6.368;2023-06-19T07:29:15;2.47;;;1.70;;
15677;SDS011;7939;50.814;6.368;2023-06-19T07:31:42;3.00;;;1.95;;
15677;SDS011;7939;50.814;6.368;2023-06-19T07:34:09;2.25;;;2.03;;
15677;SDS011;7939;50.814;6.368;2023-06-19T07:36:35;3.85;;;2.60;;
15677;SDS011;7939;50.814;6.368;2023-06-19T07:39:02;4.38;;;2.05;;
15677;SDS011;7939;50.814;6.368;2023-06-19T07:41:30;2.42;;;1.98;;
15677;SDS011;7939;50.814;6.368;2023-06-19T07:43:57;4.85;;;2.65;;
15677;SDS011;7939;50.814;6.368;2023-06-19T07:46:24;4.20;;;2.15;;
15677;SDS011;7939;50.814;6.368;2023-06-19T07:48:50;2.83;;;2.20;;
15677;SDS011;7939;50.814;6.368;2023-06-19T07:51:17;4.50;;;2.33;;
15677;SDS011;7939;50.814;6.368;2023-06-19T07:53:43;2.97;;;2.00;;
15677;SDS011;7939;50.814;6.368;2023-06-19T07:56:10;4.57;;;2.33;;
15677;SDS011;7939;50.814;6.368;2023-06-19T07:58:38;4.05;;;2.63;;
15677;SDS011;7939;50.814;6.368;2023-06-19T08:01:04;6.30;;;2.92;;
15677;SDS011;7939;50.814;6.368;2023-06-19T08:03:31;3.15;;;2.10;;
15677;SDS011;7939;50.814;6.368;2023-06-19T08:05:57;3.20;;;2.60;;
15677;SDS011;7939;50.814;6.368;2023-06-19T08:08:24;3.40;;;2.72;;
15677;SDS011;7939;50.814;6.368;2023-06-19T08:10:51;2.80;;;2.45;;
15677;SDS011;7939;50.814;6.368;2023-06-19T08:13:17;3.35;;;2.55;;
15677;SDS011;7939;50.814;6.368;2023-06-19T08:15:46;4.13;;;2.70;;
15677;SDS011;7939;50.814;6.368;2023-06-19T08:18:12;3.60;;;2.40;;
15677;SDS011;7939;50.814;6.368;2023-06-19T08:20:39;4.68;;;2.63;;
15677;SDS011;7939;50.814;6.368;2023-06-19T08:23:06;6.35;;;3.33;;
15677;SDS011;7939;50.814;6.368;2023-06-19T08:25:32;5.90;;;3.10;;
15677;SDS011;7939;50.814;6.368;2023-06-19T08:27:59;3.47;;;2.58;;
15677;SDS011;7939;50.814;6.368;2023-06-19T08:30:26;2.78;;;2.40;;
15677;SDS011;7939;50.814;6.368;2023-06-19T08:32:54;41.10;;;7.30;;
15677;SDS011;7939;50.814;6.368;2023-06-19T08:35:20;4.93;;;2.88;;
15677;SDS011;7939;50.814;6.368;2023-06-19T08:37:47;3.92;;;2.85;;
15677;SDS011;7939;50.814;6.368;2023-06-19T08:40:14;6.72;;;3.15;;
15677;SDS011;7939;50.814;6.368;2023-06-19T08:42:49;4.60;;;2.70;;
15677;SDS011;7939;50.814;6.368;2023-06-19T08:45:17;5.18;;;2.70;;
15677;SDS011;7939;50.814;6.368;2023-06-19T08:47:46;4.82;;;3.42;;
15677;SDS011;7939;50.814;6.368;2023-06-19T08:50:13;4.45;;;2.92;;
15677;SDS011;7939;50.814;6.368;2023-06-19T08:52:39;4.25;;;3.08;;
15677;SDS011;7939;50.814;6.368;2023-06-19T08:55:06;3.78;;;3.00;;
15677;SDS011;7939;50.814;6.368;2023-06-19T08:57:34;6.30;;;2.92;;
15677;SDS011;7939;50.814;6.368;2023-06-19T09:00:03;5.72;;;3.25;;
15677;SDS011;7939;50.814;6.368;2023-06-19T09:02:41;4.95;;;3.28;;
15677;SDS011;7939;50.814;6.368;2023-06-19T09:05:13;5.22;;;3.70;;
15677;SDS011;7939;50.814;6.368;2023-06-19T09:07:41;4.83;;;3.03;;
15677;SDS011;7939;50.814;6.368;2023-06-19T09:10:12;5.07;;;3.25;;
15677;SDS011;7939;50.814;6.368;2023-06-19T09:12:41;4.03;;;3.03;;
15677;SDS011;7939;50.814;6.368;2023-06-19T09:15:12;4.55;;;3.40;;
15677;SDS011;7939;50.814;6.368;2023-06-19T09:17:40;4.47;;;2.60;;
15677;SDS011;7939;50.814;6.368;2023-06-19T09:20:07;6.28;;;2.88;;
15677;SDS011;7939;50.814;6.368;2023-06-19T09:22:37;4.38;;;3.38;;
15677;SDS011;7939;50.814;6.368;2023-06-19T09:25:04;4.38;;;3.03;;
15677;SDS011;7939;50.814;6.368;2023-06-19T09:27:34;4.32;;;3.60;;
15677;SDS011;7939;50.814;6.368;2023-06-19T09:30:01;4.05;;;3.00;;
15677;SDS011;7939;50.814;6.368;2023-06-19T09:32:29;3.65;;;2.83;;
15677;SDS011;7939;50.814;6.368;2023-06-19T09:34:56;4.10;;;3.05;;
15677;SDS011;7939;50.814;6.368;2023-06-19T09:37:24;3.80;;;2.78;;
15677;SDS011;7939;50.814;6.368;2023-06-19T09:39:52;5.53;;;3.08;;
15677;SDS011;7939;50.814;6.368;2023-06-19T09:42:21;3.90;;;2.83;;
15677;SDS011;7939;50.814;6.368;2023-06-19T09:44:52;5.72;;;3.05;;
15677;SDS011;7939;50.814;6.368;2023-06-19T09:47:24;5.40;;;3.25;;
15677;SDS011;7939;50.814;6.368;2023-06-19T09:49:54;4.40;;;3.08;;
15677;SDS011;7939;50.814;6.368;2023-06-19T09:52:22;6.00;;;3.25;;
15677;SDS011;7939;50.814;6.368;2023-06-19T09:54:49;5.72;;;3.63;;
15677;SDS011;7939;50.814;6.368;2023-06-19T09:57:17;3.92;;;2.88;;
15677;SDS011;7939;50.814;6.368;2023-06-19T09:59:45;4.85;;;3.13;;
15677;SDS011;7939;50.814;6.368;2023-06-19T10:02:14;6.38;;;2.78;;
15677;SDS011;7939;50.814;6.368;2023-06-19T10:04:43;5.10;;;3.10;;
15677;SDS011;7939;50.814;6.368;2023-06-19T10:07:16;4.75;;;3.03;;
15677;SDS011;7939;50.814;6.368;2023-06-19T10:09:54;3.72;;;3.13;;
15677;SDS011;7939;50.814;6.368;2023-06-19T10:12:38;4.63;;;3.08;;
15677;SDS011;7939;50.814;6.368;2023-06-19T10:15:10;3.22;;;2.85;;
15677;SDS011;7939;50.814;6.368;2023-06-19T10:17:42;4.32;;;2.80;;
15677;SDS011;7939;50.814;6.368;2023-06-19T10:20:18;5.30;;;3.30;;
15677;SDS011;7939;50.814;6.368;2023-06-19T10:22:52;3.85;;;2.97;;
15677;SDS011;7939;50.814;6.368;2023-06-19T10:25:22;4.15;;;3.30;;
15677;SDS011;7939;50.814;6.368;2023-06-19T10:27:50;3.90;;;3.22;;
15677;SDS011;7939;50.814;6.368;2023-06-19T10:30:18;4.25;;;2.65;;
15677;SDS011;7939;50.814;6.368;2023-06-19T10:32:45;4.20;;;2.80;;
15677;SDS011;7939;50.814;6.368;2023-06-19T10:35:12;5.63;;;2.80;;
15677;SDS011;7939;50.814;6.368;2023-06-19T10:37:39;4.40;;;3.03;;
15677;SDS011;7939;50.814;6.368;2023-06-19T10:40:08;4.10;;;2.92;;
15677;SDS011;7939;50.814;6.368;2023-06-19T10:42:36;5.95;;;3.13;;
15677;SDS011;7939;50.814;6.368;2023-06-19T10:45:03;3.88;;;2.88;;
15677;SDS011;7939;50.814;6.368;2023-06-19T10:47:32;5.78;;;3.08;;
15677;SDS011;7939;50.814;6.368;2023-06-19T10:49:58;6.93;;;3.28;;
15677;SDS011;7939;50.814;6.368;2023-06-19T10:52:27;3.58;;;2.70;;
15677;SDS011;7939;50.814;6.368;2023-06-19T10:54:54;4.32;;;3.30;;
15677;SDS011;7939;50.814;6.368;2023-06-19T10:57:27;4.32;;;3.50;;
15677;SDS011;7939;50.814;6.368;2023-06-19T10:59:54;3.55;;;2.92;;
15677;SDS011;7939;50.814;6.368;2023-06-19T11:02:22;5.57;;;2.88;;
15677;SDS011;7939;50.814;6.368;2023-06-19T11:04:51;4.82;;;3.25;;
15677;SDS011;7939;50.814;6.368;2023-06-19T11:07:18;5.00;;;2.50;;
15677;SDS011;7939;50.814;6.368;2023-06-19T11:09:45;6.20;;;3.15;;
15677;SDS011;7939;50.814;6.368;2023-06-19T11:12:12;2.70;;;2.50;;
15677;SDS011;7939;50.814;6.368;2023-06-19T11:14:47;4.70;;;2.90;;
15677;SDS011;7939;50.814;6.368;2023-06-19T11:17:14;5.82;;;3.17;;
15677;SDS011;7939;50.814;6.368;2023-06-19T11:19:41;6.88;;;3.60;;
15677;SDS011;7939;50.814;6.368;2023-06-19T11:22:09;3.97;;;3.33;;
15677;SDS011;7939;50.814;6.368;2023-06-19T11:24:36;5.82;;;3.00;;
15677;SDS011;7939;50.814;6.368;2023-06-19T11:27:13;5.07;;;2.60;;
15677;SDS011;7939;50.814;6.368;2023-06-19T11:29:43;6.50;;;3.50;;
15677;SDS011;7939;50.814;6.368;2023-06-19T11:32:12;3.58;;;2.75;;
15677;SDS011;7939;50.814;6.368;2023-06-19T11:34:39;2.47;;;2.25;;
15677;SDS011;7939;50.814;6.368;2023-06-19T11:37:11;2.92;;;2.63;;
15677;SDS011;7939;50.814;6.368;2023-06-19T11:39:38;3.22;;;2.53;;
15677;SDS011;7939;50.814;6.368;2023-06-19T11:42:06;4.03;;;3.00;;
15677;SDS011;7939;50.814;6.368;2023-06-19T11:44:33;4.93;;;2.95;;
15677;SDS011;7939;50.814;6.368;2023-06-19T11:46:59;5.57;;;3.40;;
15677;SDS011;7939;50.814;6.368;2023-06-19T11:49:28;4.25;;;2.88;;
15677;SDS011;7939;50.814;6.368;2023-06-19T11:52:01;3.92;;;2.65;;
15677;SDS011;7939;50.814;6.368;2023-06-19T11:54:28;2.80;;;2.50;;
15677;SDS011;7939;50.814;6.368;2023-06-19T11:56:54;6.03;;;3.58;;
15677;SDS011;7939;50.814;6.368;2023-06-19T11:59:21;4.82;;;2.53;;
15677;SDS011;7939;50.814;6.368;2023-06-19T12:01:47;7.18;;;3.38;;
15677;SDS011;7939;50.814;6.368;2023-06-19T12:04:14;4.82;;;3.60;;
15677;SDS011;7939;50.814;6.368;2023-06-19T12:06:42;4.68;;;2.90;;
15677;SDS011;7939;50.814;6.368;2023-06-19T12:09:09;5.32;;;2.60;;
15677;SDS011;7939;50.814;6.368;2023-06-19T12:11:36;3.50;;;2.72;;
15677;SDS011;7939;50.814;6.368;2023-06-19T12:14:03;3.65;;;2.72;;
15677;SDS011;7939;50.814;6.368;2023-06-19T12:16:30;3.03;;;2.47;;
15677;SDS011;7939;50.814;6.368;2023-06-19T12:18:56;4.45;;;2.60;;
15677;SDS011;7939;50.814;6.368;2023-06-19T12:21:23;5.03;;;2.70;;
15677;SDS011;7939;50.814;6.368;2023-06-19T12:23:51;3.83;;;2.95;;
15677;SDS011;7939;50.814;6.368;2023-06-19T12:26:18;4.38;;;2.47;;
15677;SDS011;7939;50.814;6.368;2023-06-19T12:28:45;4.55;;;2.35;;
15677;SDS011;7939;50.814;6.368;2023-06-19T12:31:11;4.07;;;2.97;;
15677;SDS011;7939;50.814;6.368;2023-06-19T12:33:38;3.95;;;2.58;;
15677;SDS011;7939;50.814;6.368;2023-06-19T12:36:09;5.05;;;3.13;;
15677;SDS011;7939;50.814;6.368;2023-06-19T12:38:37;4.75;;;2.60;;
15677;SDS011;7939;50.814;6.368;2023-06-19T12:41:06;3.55;;;2.47;;
15677;SDS011;7939;50.814;6.368;2023-06-19T12:43:32;3.25;;;2.58;;
15677;SDS011;7939;50.814;6.368;2023-06-19T12:46:00;3.03;;;2.33;;
15677;SDS011;7939;50.814;6.368;2023-06-19T12:48:26;3.63;;;2.50;;
15677;SDS011;7939;50.814;6.368;2023-06-19T12:50:53;3.42;;;2.47;;
15677;SDS011;7939;50.814;6.368;2023-06-19T12:53:20;6.88;;;3.20;;
15677;SDS011;7939;50.814;6.368;2023-06-19T12:55:51;4.53;;;2.83;;
15677;SDS011;7939;50.814;6.368;2023-06-19T12:58:20;4.05;;;2.75;;
15677;SDS011;7939;50.814;6.368;2023-06-19T13:00:46;2.78;;;2.25;;
15677;SDS011;7939;50.814;6.368;2023-06-19T13:03:13;4.03;;;3.42;;
15677;SDS011;7939;50.814;6.368;2023-06-19T13:05:39;3.28;;;2.60;;
15677;SDS011;7939;50.814;6.368;2023-06-19T13:08:06;3.33;;;2.75;;
15677;SDS011;7939;50.814;6.368;2023-06-19T13:10:33;3.63;;;2.65;;
15677;SDS011;7939;50.814;6.368;2023-06-19T13:13:00;3.78;;;2.63;;
15677;SDS011;7939;50.814;6.368;2023-06-19T13:15:28;4.55;;;2.97;;
15677;SDS011;7939;50.814;6.368;2023-06-19T13:17:54;4.43;;;2.50;;
15677;SDS011;7939;50.814;6.368;2023-06-19T13:20:21;5.20;;;3.00;;
15677;SDS011;7939;50.814;6.368;2023-06-19T13:22:47;3.88;;;2.72;;
15677;SDS011;7939;50.814;6.368;2023-06-19T13:25:14;3.08;;;2.75;;
15677;SDS011;7939;50.814;6.368;2023-06-19T13:27:41;4.68;;;3.13;;
15677;SDS011;7939;50.814;6.368;2023-06-19T13:30:08;3.00;;;2.72;;
15677;SDS011;7939;50.814;6.368;2023-06-19T13:32:36;6.80;;;2.97;;
15677;SDS011;7939;50.814;6.368;2023-06-19T13:35:04;4.13;;;3.38;;
15677;SDS011;7939;50.814;6.368;2023-06-19T13:37:32;4.22;;;2.70;;
15677;SDS011;7939;50.814;6.368;2023-06-19T13:40:00;3.83;;;3.08;;
15677;SDS011;7939;50.814;6.368;2023-06-19T13:42:27;4.60;;;2.85;;
15677;SDS011;7939;50.814;6.368;2023-06-19T13:44:55;4.25;;;2.58;;
15677;SDS011;7939;50.814;6.368;2023-06-19T13:47:22;4.07;;;3.10;;
15677;SDS011;7939;50.814;6.368;2023-06-19T13:49:51;3.28;;;2.97;;
15677;SDS011;7939;50.814;6.368;2023-06-19T13:52:18;6.18;;;2.92;;
15677;SDS011;7939;50.814;6.368;2023-06-19T13:54:45;5.03;;;2.90;;
15677;SDS011;7939;50.814;6.368;2023-06-19T13:57:12;3.70;;;2.65;;
15677;SDS011;7939;50.814;6.368;2023-06-19T13:59:39;3.83;;;2.45;;
15677;SDS011;7939;50.814;6.368;2023-06-19T14:02:06;6.78;;;2.80;;
15677;SDS011;7939;50.814;6.368;2023-06-19T14:04:33;4.85;;;2.83;;
15677;SDS011;7939;50.814;6.368;2023-06-19T14:07:01;4.30;;;3.00;;
15677;SDS011;7939;50.814;6.368;2023-06-19T14:09:28;4.45;;;2.67;;
15677;SDS011;7939;50.814;6.368;2023-06-19T14:11:55;4.07;;;2.47;;
15677;SDS011;7939;50.814;6.368;2023-06-19T14:14:21;6.63;;;2.63;;
15677;SDS011;7939;50.814;6.368;2023-06-19T14:16:48;3.40;;;2.85;;
15677;SDS011;7939;50.814;6.368;2023-06-19T14:19:14;5.25;;;2.97;;
15677;SDS011;7939;50.814;6.368;2023-06-19T14:21:41;5.47;;;2.85;;
15677;SDS011;7939;50.814;6.368;2023-06-19T14:24:09;3.72;;;2.60;;
15677;SDS011;7939;50.814;6.368;2023-06-19T14:26:35;2.80;;;2.33;;
15677;SDS011;7939;50.814;6.368;2023-06-19T14:29:02;3.55;;;2.40;;
15677;SDS011;7939;50.814;6.368;2023-06-19T14:31:29;6.53;;;2.83;;
15677;SDS011;7939;50.814;6.368;2023-06-19T14:33:55;5.32;;;2.88;;
15677;SDS011;7939;50.814;6.368;2023-06-19T14:36:22;3.38;;;2.58;;
15677;SDS011;7939;50.814;6.368;2023-06-19T14:38:48;4.60;;;3.00;;
15677;SDS011;7939;50.814;6.368;2023-06-19T14:41:17;4.55;;;2.92;;
15677;SDS011;7939;50.814;6.368;2023-06-19T14:43:43;7.45;;;2.88;;
15677;SDS011;7939;50.814;6.368;2023-06-19T14:46:10;3.92;;;2.85;;
15677;SDS011;7939;50.814;6.368;2023-06-19T14:48:37;3.85;;;2.90;;
15677;SDS011;7939;50.814;6.368;2023-06-19T14:51:04;23.05;;;3.92;;
15677;SDS011;7939;50.814;6.368;2023-06-19T14:53:30;4.05;;;3.05;;
15677;SDS011;7939;50.814;6.368;2023-06-19T14:55:57;5.80;;;3.30;;
15677;SDS011;7939;50.814;6.368;2023-06-19T14:58:25;5.00;;;2.90;;
15677;SDS011;7939;50.814;6.368;2023-06-19T15:00:53;3.28;;;2.55;;
15677;SDS011;7939;50.814;6.368;2023-06-19T15:03:20;4.00;;;2.85;;